createdAt,value
2023-04-07T00:02:55.197Z,6.3
2023-04-07T00:18:16.000Z,5.1
2023-04-07T00:33:36.157Z,6
2023-04-07T00:48:57.131Z,9.4
2023-04-07T01:04:18.098Z,4.1
2023-04-07T01:19:39.077Z,5.4
2023-04-07T01:35:00.050Z,5.4
2023-04-07T01:50:21.000Z,3.9
2023-04-07T02:05:42.000Z,3.1
2023-04-07T02:21:02.000Z,4.4
2023-04-07T02:36:21.957Z,8.2
2023-04-07T02:51:41.964Z,7.9
2023-04-07T03:07:01.951Z,3.3
2023-04-07T03:22:22.000Z,3
2023-04-07T03:37:43.905Z,4.8
2023-04-07T03:53:04.000Z,3
2023-04-07T04:08:25.821Z,3.7
2023-04-07T04:23:46.000Z,5.2
2023-04-07T04:39:07.663Z,4.5
2023-04-07T04:54:28.000Z,3.6
2023-04-07T05:09:49.000Z,6.5
2023-04-07T05:25:10.000Z,5.9
2023-04-07T05:40:31.401Z,9.6
2023-04-07T05:55:52.316Z,6.1
2023-04-07T06:11:13.236Z,5.6
2023-04-07T06:26:33.197Z,8.3
2023-04-07T06:41:54.123Z,9.7
2023-04-07T06:57:15.054Z,9.7
2023-04-07T07:12:35.994Z,5.3
2023-04-07T07:27:56.000Z,9.4
2023-04-07T07:43:17.858Z,7.3
2023-04-07T07:58:38.000Z,7
2023-04-07T08:13:58.000Z,6.2
2023-04-07T08:29:18.000Z,10
2023-04-07T08:30:39.762Z,8.8
2023-04-07T08:32:00.836Z,11
2023-04-07T08:33:21.900Z,12.7
2023-04-07T08:34:42.000Z,10
2023-04-07T08:36:04.048Z,9.8
2023-04-07T08:37:25.000Z,10.1
2023-04-07T08:38:46.180Z,10.8
2023-04-07T08:40:07.000Z,11.3
2023-04-07T08:41:28.319Z,12.3
2023-04-07T08:42:49.393Z,11.2
2023-04-07T08:44:10.462Z,9.9
2023-04-07T08:45:31.000Z,10
2023-04-07T08:46:51.646Z,11.9
2023-04-07T08:48:12.000Z,11.8
2023-04-07T08:49:33.768Z,12
2023-04-07T08:50:54.000Z,11.8
2023-04-07T08:52:15.000Z,11.5
2023-04-07T08:53:36.992Z,12.4
2023-04-07T08:54:58.064Z,11
2023-04-07T08:56:18.159Z,9.4
2023-04-07T08:57:38.258Z,10.7
2023-04-07T08:58:58.350Z,7.9
2023-04-07T09:00:18.000Z,10.2
2023-04-07T09:01:39.501Z,8.9
2023-04-07T09:03:00.597Z,9
2023-04-07T09:04:21.662Z,10.4
2023-04-07T09:05:42.746Z,7.5
2023-04-07T09:07:03.828Z,11.3
2023-04-07T09:08:24.000Z,14.9
2023-04-07T09:09:45.970Z,9.7
2023-04-07T09:11:07.026Z,9.4
2023-04-07T09:12:28.103Z,11.3
2023-04-07T09:13:49.179Z,8.9
2023-04-07T09:15:10.254Z,11.6
2023-04-07T09:16:31.303Z,8.8
2023-04-07T09:17:51.403Z,7.5
2023-04-07T09:19:12.467Z,11.8
2023-04-07T09:20:33.541Z,10.1
2023-04-07T09:21:54.611Z,8.6
2023-04-07T09:23:15.675Z,11.5
2023-04-07T09:24:36.760Z,9.9
2023-04-07T09:25:57.825Z,8.6
2023-04-07T09:27:17.920Z,10.9
2023-04-07T09:28:37.990Z,8.7
2023-04-07T09:29:59.054Z,8.4
2023-04-07T09:31:20.135Z,12.8
2023-04-07T09:32:40.220Z,11.8
2023-04-07T09:34:00.324Z,8.5
2023-04-07T09:35:21.387Z,9.5
2023-04-07T09:36:42.000Z,10
2023-04-07T09:38:03.516Z,10.9
2023-04-07T09:39:24.586Z,13.1
2023-04-07T09:40:45.665Z,9.5
2023-04-07T09:42:06.000Z,10.5
2023-04-07T09:43:27.796Z,12.4
2023-04-07T09:44:48.849Z,10.1
2023-04-07T09:46:09.923Z,11.1
2023-04-07T09:47:30.989Z,11
2023-04-07T09:48:52.077Z,9.1
2023-04-07T09:50:13.000Z,10.1
2023-04-07T09:51:33.213Z,9.3
2023-04-07T09:52:54.285Z,13.5
2023-04-07T09:54:15.346Z,8.6
2023-04-07T09:55:36.000Z,11
2023-04-07T09:56:57.485Z,14.8
2023-04-07T09:58:18.560Z,11.1
2023-04-07T09:59:39.624Z,11.4
2023-04-07T10:00:59.000Z,11.7
2023-04-07T10:02:19.810Z,15.9
2023-04-07T10:03:40.880Z,8.4
2023-04-07T10:05:00.979Z,9.1
2023-04-07T10:06:22.038Z,9.1
2023-04-07T10:07:42.132Z,8.6
2023-04-07T10:09:03.211Z,10.4
2023-04-07T10:10:24.269Z,10.5
2023-04-07T10:11:45.000Z,9.8
2023-04-07T10:13:06.417Z,8
2023-04-07T10:14:27.000Z,10
2023-04-07T10:15:48.545Z,10.4
2023-04-07T10:17:08.635Z,9.5
2023-04-07T10:18:29.699Z,11.2
2023-04-07T10:19:50.000Z,13.7
2023-04-07T10:21:11.846Z,9
2023-04-07T10:22:32.000Z,8.9
2023-04-07T10:23:53.986Z,13.1
2023-04-07T10:25:15.028Z,9.8
2023-04-07T10:26:36.100Z,10.4
2023-04-07T10:27:57.186Z,9.7
2023-04-07T10:29:18.260Z,9.4
2023-04-07T10:30:39.000Z,10.9
2023-04-07T10:32:00.375Z,10
2023-04-07T10:33:20.493Z,8.3
2023-04-07T10:34:40.578Z,11.1
2023-04-07T10:36:01.000Z,10.5
2023-04-07T10:37:22.714Z,11.2
2023-04-07T10:38:43.778Z,8.2
2023-04-07T10:40:04.846Z,11.2
2023-04-07T10:41:25.910Z,10.8
2023-04-07T10:42:46.982Z,9.8
2023-04-07T10:44:08.053Z,10.1
2023-04-07T10:45:29.113Z,10.7
2023-04-07T10:46:50.187Z,16.8
2023-04-07T10:48:11.266Z,9.5
2023-04-07T10:49:32.347Z,12.5
2023-04-07T10:50:53.424Z,10.4
2023-04-07T10:52:13.490Z,9.9
2023-04-07T10:53:34.569Z,9.7
2023-04-07T10:54:55.624Z,12.2
2023-04-07T10:56:16.696Z,10.9
2023-04-07T10:57:37.000Z,12.2
2023-04-07T10:58:58.835Z,16
2023-04-07T11:00:19.899Z,10.7
2023-04-07T11:01:39.998Z,9.1
2023-04-07T11:03:00.081Z,13.7
2023-04-07T11:04:20.175Z,8.7
2023-04-07T11:05:41.000Z,12
2023-04-07T11:07:01.442Z,8.1
2023-04-07T11:08:21.533Z,9.1
2023-04-07T11:09:42.602Z,12.1
2023-04-07T11:11:03.000Z,10.6
2023-04-07T11:12:24.752Z,10.4
2023-04-07T11:13:45.000Z,8.7
2023-04-07T11:15:06.905Z,8.9
2023-04-07T11:16:28.000Z,10.8
2023-04-07T11:17:49.042Z,8.2
2023-04-07T11:19:10.119Z,13.4
2023-04-07T11:20:31.182Z,8.1
2023-04-07T11:21:52.258Z,10
2023-04-07T11:23:13.319Z,10.9
2023-04-07T11:24:34.389Z,9.4
2023-04-07T11:25:54.485Z,10.1
2023-04-07T11:27:15.545Z,10.7
2023-04-07T11:28:36.617Z,9.4
2023-04-07T11:29:57.714Z,7.8
2023-04-07T11:31:18.744Z,9.3
2023-04-07T11:32:39.827Z,9.5
2023-04-07T11:34:00.900Z,7.6
2023-04-07T11:35:21.006Z,8.4
2023-04-07T11:38:02.146Z,10.1
2023-04-07T11:39:22.230Z,10
2023-04-07T11:40:42.333Z,9.2
2023-04-07T11:42:03.403Z,10.5
2023-04-07T11:43:24.460Z,9.8
2023-04-07T11:44:45.534Z,8.6
2023-04-07T11:46:06.608Z,8.4
2023-04-07T11:47:27.678Z,9.2
2023-04-07T11:48:48.759Z,8.5
2023-04-07T11:50:09.816Z,7.9
2023-04-07T11:51:30.885Z,9.4
2023-04-07T11:52:51.942Z,9.5
2023-04-07T11:54:13.007Z,8.9
2023-04-07T11:55:34.070Z,9
2023-04-07T11:56:55.000Z,9.1
2023-04-07T11:58:15.235Z,8.4
2023-04-07T11:59:36.288Z,10.1
2023-04-07T12:00:57.384Z,10.7
2023-04-07T12:02:18.439Z,11.7
2023-04-07T12:03:39.506Z,8.2
2023-04-07T12:05:00.582Z,7.5
2023-04-07T12:06:21.643Z,9.4
2023-04-07T12:07:41.740Z,8.2
2023-04-07T12:09:01.837Z,10.1
2023-04-07T12:10:21.921Z,13
2023-04-07T12:11:42.000Z,12.1
2023-04-07T12:13:03.080Z,8.8
2023-04-07T12:14:24.141Z,10.3
2023-04-07T12:15:45.208Z,9.7
2023-04-07T12:17:06.276Z,10.2
2023-04-07T12:18:27.355Z,9.7
2023-04-07T12:19:48.401Z,7.4
2023-04-07T12:21:09.000Z,10.9
2023-04-07T12:22:30.552Z,11.5
2023-04-07T12:23:51.618Z,8.9
2023-04-07T12:25:12.670Z,7.3
2023-04-07T12:26:33.761Z,9.7
2023-04-07T12:27:54.830Z,8.2
2023-04-07T12:29:14.000Z,9.7
2023-04-07T12:30:35.966Z,10.8
2023-04-07T12:31:57.000Z,8.9
2023-04-07T12:33:18.107Z,11.7
2023-04-07T12:34:39.165Z,10.2
2023-04-07T12:36:00.223Z,7.8
2023-04-07T12:37:21.306Z,8
2023-04-07T12:38:41.389Z,10.7
2023-04-07T12:40:01.486Z,12.3
2023-04-07T12:41:21.565Z,9.2
2023-04-07T12:42:41.663Z,10.2
2023-04-07T12:44:02.714Z,8.6
2023-04-07T12:45:23.794Z,8.3
2023-04-07T12:46:44.859Z,11.5
2023-04-07T12:48:05.928Z,12.1
2023-04-07T12:49:27.004Z,11.9
2023-04-07T12:50:48.067Z,11.7
2023-04-07T12:52:09.120Z,12.8
2023-04-07T12:53:30.189Z,8.5
2023-04-07T12:54:51.261Z,7.4
2023-04-07T12:56:12.338Z,11
2023-04-07T12:57:33.400Z,10.5
2023-04-07T12:58:54.452Z,9.4
2023-04-07T13:00:14.555Z,6.9
2023-04-07T13:01:35.000Z,9.3
2023-04-07T13:02:56.700Z,9.7
2023-04-07T13:04:17.000Z,7.5
2023-04-07T13:05:38.828Z,7.7
2023-04-07T13:06:59.900Z,13.5
2023-04-07T13:08:20.977Z,9.6
2023-04-07T13:09:41.067Z,9.6
2023-04-07T13:11:01.150Z,9.4
2023-04-07T13:12:21.240Z,11.7
2023-04-07T13:13:41.319Z,10.9
2023-04-07T13:15:02.381Z,8.4
2023-04-07T13:16:23.448Z,8.4
2023-04-07T13:17:44.529Z,9.2
2023-04-07T13:19:05.588Z,8.6
2023-04-07T13:20:26.654Z,7.9
2023-04-07T13:21:47.727Z,8.1
2023-04-07T13:23:08.000Z,7.4
2023-04-07T13:24:29.857Z,7.6
2023-04-07T13:27:12.001Z,12.1
2023-04-07T13:28:33.038Z,8.8
2023-04-07T13:29:54.132Z,7.2
2023-04-07T13:31:14.211Z,16.8
2023-04-07T13:32:35.277Z,7.1
2023-04-07T13:33:56.347Z,7.7
2023-04-07T13:35:17.410Z,10
2023-04-07T13:36:38.480Z,9.4
2023-04-07T13:39:20.611Z,7.1
2023-04-07T13:40:40.700Z,8.1
2023-04-07T13:42:00.795Z,9.5
2023-04-07T13:43:21.864Z,7.1
2023-04-07T13:44:42.933Z,8.3
2023-04-07T13:46:04.003Z,7.2
2023-04-07T13:47:25.064Z,6.5
2023-04-07T13:48:46.124Z,6.2
2023-04-07T13:50:07.200Z,7.3
2023-04-07T13:51:28.255Z,10.2
2023-04-07T13:52:49.304Z,7.5
2023-04-07T13:54:10.386Z,8.2
2023-04-07T13:55:30.481Z,9.5
2023-04-07T13:56:50.568Z,8
2023-04-07T13:58:11.643Z,7.1
2023-04-07T13:59:32.702Z,9.7
2023-04-07T14:00:53.767Z,7.8
2023-04-07T14:02:14.846Z,7.7
2023-04-07T14:03:35.913Z,11.5
2023-04-07T14:04:56.966Z,11.2
2023-04-07T14:06:18.041Z,34
2023-04-07T14:07:39.093Z,10.9
2023-04-07T14:09:00.158Z,12.3
2023-04-07T14:10:21.224Z,8.3
2023-04-07T14:11:42.304Z,7.9
2023-04-07T14:13:03.368Z,7.6
2023-04-07T14:14:23.447Z,5.7
2023-04-07T14:15:44.527Z,6.4
2023-04-07T14:17:05.595Z,8
2023-04-07T14:18:26.663Z,6.3
2023-04-07T14:19:47.726Z,9.2
2023-04-07T14:21:08.780Z,12.7
2023-04-07T14:22:29.827Z,6.1
2023-04-07T14:23:49.930Z,9.4
2023-04-07T14:25:10.000Z,5.3
2023-04-07T14:26:31.097Z,5.5
2023-04-07T14:27:52.000Z,5.3
2023-04-07T14:29:13.223Z,10.8
2023-04-07T14:30:34.000Z,6.2
2023-04-07T14:31:55.358Z,7.4
2023-04-07T14:33:16.434Z,6.3
2023-04-07T14:34:37.499Z,6.8
2023-04-07T14:35:58.563Z,5.4
2023-04-07T14:37:19.636Z,6.6
2023-04-07T14:38:40.684Z,6.1
2023-04-07T14:40:01.762Z,6.8
2023-04-07T14:41:22.828Z,5.6
2023-04-07T14:42:42.886Z,5.5
2023-04-07T14:44:03.983Z,7.8
2023-04-07T14:45:25.027Z,9
2023-04-07T14:46:46.102Z,6.3
2023-04-07T14:48:06.206Z,6.7
2023-04-07T14:49:27.281Z,5.2
2023-04-07T14:50:48.347Z,6.9
2023-04-07T14:52:08.439Z,8.6
2023-04-07T14:53:28.512Z,6.9
2023-04-07T14:54:48.614Z,4.9
2023-04-07T14:56:08.698Z,5.8
2023-04-07T14:57:29.768Z,7.6
2023-04-07T14:58:50.841Z,7.2
2023-04-07T15:00:11.895Z,6.4
2023-04-07T15:01:32.959Z,5.8
2023-04-07T15:02:54.000Z,9.2
2023-04-07T15:04:15.078Z,7
2023-04-07T15:05:36.000Z,7.6
2023-04-07T15:06:57.241Z,6.9
2023-04-07T15:08:18.301Z,7.4
2023-04-07T15:09:39.349Z,10
2023-04-07T15:11:00.000Z,7.6
2023-04-07T15:12:21.491Z,8.1
2023-04-07T15:13:41.587Z,6.2
2023-04-07T15:15:02.640Z,7.1
2023-04-07T15:16:23.000Z,7.5
2023-04-07T15:17:44.764Z,6.3
2023-04-07T15:19:05.841Z,9.7
2023-04-07T15:20:26.909Z,7.1
2023-04-07T15:21:47.972Z,9.8
2023-04-07T15:23:08.078Z,7.4
2023-04-07T15:24:28.000Z,7.5
2023-04-07T15:25:48.244Z,7.9
2023-04-07T15:27:08.334Z,6.1
2023-04-07T15:28:29.395Z,5.5
2023-04-07T15:29:50.459Z,7.1
2023-04-07T15:31:11.527Z,6.3
2023-04-07T15:32:32.594Z,7.2
2023-04-07T15:33:53.664Z,7.4
2023-04-07T15:35:14.717Z,7.4
2023-04-07T15:36:35.786Z,6.6
2023-04-07T15:37:56.850Z,6.6
2023-04-07T15:39:17.924Z,8.5
2023-04-07T15:40:38.000Z,8
2023-04-07T15:42:00.042Z,6.8
2023-04-07T15:43:21.114Z,6.5
2023-04-07T15:44:41.204Z,8.9
2023-04-07T15:46:02.000Z,5.6
2023-04-07T15:47:23.343Z,9.4
2023-04-07T15:48:44.407Z,7.2
2023-04-07T15:50:05.447Z,7.2
2023-04-07T15:51:26.533Z,6.4
2023-04-07T15:52:47.612Z,6.2
2023-04-07T15:54:07.692Z,6.5
2023-04-07T15:55:27.755Z,7.4
2023-04-07T15:56:48.843Z,7.7
2023-04-07T15:58:09.909Z,6.2
2023-04-07T15:59:30.969Z,9.3
2023-04-07T16:00:52.051Z,7.1
2023-04-07T16:02:13.109Z,7.5
2023-04-07T16:03:34.178Z,8.4
2023-04-07T16:04:55.233Z,6.1
2023-04-07T16:06:16.303Z,8.5
2023-04-07T16:07:37.385Z,6.5
2023-04-07T16:08:58.448Z,9.1
2023-04-07T16:10:19.507Z,8.8
2023-04-07T16:11:40.554Z,9.8
2023-04-07T16:13:00.639Z,7
2023-04-07T16:14:21.701Z,8
2023-04-07T16:15:42.783Z,9.1
2023-04-07T16:17:03.858Z,9.7
2023-04-07T16:18:24.902Z,7
2023-04-07T16:19:45.991Z,9.4
2023-04-07T16:21:07.058Z,9.4
2023-04-07T16:22:27.146Z,8
2023-04-07T16:23:47.234Z,10.1
2023-04-07T16:25:07.319Z,8.8
2023-04-07T16:26:27.408Z,8.5
2023-04-07T16:27:47.497Z,6.7
2023-04-07T16:29:07.575Z,6.2
2023-04-07T16:30:28.655Z,6.4
2023-04-07T16:31:49.711Z,7.9
2023-04-07T16:33:10.793Z,10.7
2023-04-07T16:34:31.000Z,9.9
2023-04-07T16:35:52.904Z,9.9
2023-04-07T16:37:13.981Z,9.8
2023-04-07T16:38:35.040Z,8
2023-04-07T16:39:56.130Z,7.8
2023-04-07T16:41:17.181Z,9.4
2023-04-07T16:42:38.263Z,8.9
2023-04-07T16:43:59.326Z,7.6
2023-04-07T16:45:20.399Z,8.4
2023-04-07T16:46:40.469Z,8
2023-04-07T16:48:01.551Z,9
2023-04-07T16:49:22.604Z,5.8
2023-04-07T16:50:43.685Z,7.6
2023-04-07T16:52:04.738Z,7.7
2023-04-07T16:53:25.811Z,8
2023-04-07T16:54:46.885Z,7.3
2023-04-07T16:56:06.000Z,7.6
2023-04-07T16:57:27.063Z,8.1
2023-04-07T16:58:47.000Z,6.1
2023-04-07T17:00:07.234Z,10.1
2023-04-07T17:01:27.000Z,7.3
2023-04-07T17:02:47.406Z,8.2
2023-04-07T17:04:08.472Z,6.4
2023-04-07T17:05:29.551Z,6.4
2023-04-07T17:06:50.619Z,7
2023-04-07T17:08:11.695Z,6.6
2023-04-07T17:09:32.735Z,7
2023-04-07T17:10:53.794Z,7.4
2023-04-07T17:12:14.873Z,8.7
2023-04-07T17:13:35.954Z,8.4
2023-04-07T17:14:57.000Z,23.7
2023-04-07T17:16:18.077Z,41.3
2023-04-07T17:17:39.145Z,18.2
2023-04-07T17:19:00.190Z,6.5
2023-04-07T17:20:20.292Z,5.7
2023-04-07T17:21:41.372Z,7
2023-04-07T17:23:02.000Z,9.2
2023-04-07T17:24:23.517Z,6.8
2023-04-07T17:25:44.568Z,9.4
2023-04-07T17:27:05.625Z,7.7
2023-04-07T17:28:26.709Z,7.6
2023-04-07T17:29:46.803Z,9.6
2023-04-07T17:31:06.882Z,7.6
2023-04-07T17:32:26.976Z,6.5
2023-04-07T17:33:47.069Z,6.9
2023-04-07T17:35:08.115Z,7.3
2023-04-07T17:36:29.198Z,6.1
2023-04-07T17:37:50.265Z,5.3
2023-04-07T17:39:11.297Z,6.8
2023-04-07T17:40:32.399Z,7.4
2023-04-07T17:41:53.467Z,6.2
2023-04-07T17:43:14.533Z,4.6
2023-04-07T17:44:35.602Z,5.7
2023-04-07T17:45:56.639Z,4.6
2023-04-07T17:47:17.733Z,6
2023-04-07T17:48:38.768Z,7.7
2023-04-07T17:49:59.871Z,6.1
2023-04-07T17:51:21.061Z,10
2023-04-07T17:52:42.121Z,4.9
2023-04-07T17:54:03.182Z,6.1
2023-04-07T17:55:24.248Z,4.5
2023-04-07T17:56:45.332Z,5
2023-04-07T17:58:06.000Z,7.4
2023-04-07T18:00:48.508Z,4.3
2023-04-07T18:02:09.743Z,5.9
2023-04-07T18:03:29.830Z,6.7
2023-04-07T18:04:49.914Z,5
2023-04-07T18:06:09.986Z,4.3
2023-04-07T18:07:31.052Z,5.4
2023-04-07T18:08:52.111Z,7
2023-04-07T18:10:13.217Z,5.2
2023-04-07T18:11:34.283Z,4.6
2023-04-07T18:12:55.338Z,5.9
2023-04-07T18:14:16.461Z,5.6
2023-04-07T18:15:37.535Z,7.9
2023-04-07T18:16:58.663Z,5.9
2023-04-07T18:18:19.775Z,9.2
2023-04-07T18:19:40.891Z,11.6
2023-04-07T18:21:01.954Z,4.2
2023-04-07T18:22:23.078Z,4.4
2023-04-07T18:23:43.196Z,3.7
2023-04-07T18:25:04.302Z,4.5
2023-04-07T18:26:25.386Z,5
2023-04-07T18:27:46.529Z,4.6
2023-04-07T18:29:07.624Z,6.1
2023-04-07T18:30:28.729Z,4.3
2023-04-07T18:31:49.836Z,4.7
2023-04-07T18:33:09.988Z,4.3
2023-04-07T18:34:30.125Z,5.8
2023-04-07T18:35:50.254Z,4.3
2023-04-07T18:37:10.372Z,5.1
2023-04-07T18:38:31.492Z,6
2023-04-07T18:39:52.586Z,5.9
2023-04-07T18:41:13.693Z,8.3
2023-04-07T18:42:34.819Z,7.5
2023-04-07T18:43:55.913Z,5.2
2023-04-07T18:45:17.034Z,5.4
2023-04-07T18:46:38.145Z,6.2
2023-04-07T18:47:59.254Z,5.7
2023-04-07T18:49:20.355Z,7.5
2023-04-07T18:50:41.481Z,7.1
2023-04-07T18:52:02.588Z,7.5
2023-04-07T18:53:23.675Z,7.1
2023-04-07T18:54:43.816Z,8.2
2023-04-07T18:56:04.925Z,7.6
2023-04-07T18:57:26.032Z,7.4
2023-04-07T18:58:47.145Z,7.3
2023-04-07T19:00:08.268Z,6.7
2023-04-07T19:01:29.360Z,10.7
2023-04-07T19:02:50.486Z,7.9
2023-04-07T19:04:10.587Z,11.3
2023-04-07T19:05:30.728Z,6.3
2023-04-07T19:06:50.881Z,6.6
2023-04-07T19:08:11.004Z,8.8
2023-04-07T19:09:32.102Z,7.3
2023-04-07T19:10:53.193Z,6.7
2023-04-07T19:12:14.330Z,7.4
2023-04-07T19:13:35.416Z,7.8
2023-04-07T19:14:56.542Z,7.9
2023-04-07T19:16:17.665Z,6.5
2023-04-07T19:17:38.771Z,5.4
2023-04-07T19:18:58.898Z,7
2023-04-07T19:20:19.979Z,7.8
2023-04-07T19:21:41.121Z,5.7
2023-04-07T19:23:02.000Z,6.2
2023-04-07T19:24:23.332Z,6.4
2023-04-07T19:25:44.412Z,9.2
2023-04-07T19:27:05.552Z,6.7
2023-04-07T19:28:26.658Z,7.4
2023-04-07T19:29:47.771Z,7.5
2023-04-07T19:31:08.870Z,6.8
2023-04-07T19:32:29.971Z,6.5
2023-04-07T19:33:51.096Z,8.4
2023-04-07T19:35:11.237Z,10.4
2023-04-07T19:36:31.355Z,7.5
2023-04-07T19:37:52.475Z,6.2
2023-04-07T19:39:13.581Z,7.6
2023-04-07T19:40:34.683Z,9.1
2023-04-07T19:41:55.809Z,10.5
2023-04-07T19:43:16.912Z,7.7
2023-04-07T19:44:38.025Z,9.5
2023-04-07T19:45:59.136Z,9.3
2023-04-07T19:47:20.254Z,9.3
2023-04-07T19:48:41.349Z,11
2023-04-07T19:50:02.458Z,11.1
2023-04-07T19:51:23.568Z,10
2023-04-07T19:52:44.684Z,17.6
2023-04-07T19:54:04.799Z,32.9
2023-04-07T19:55:25.887Z,39.9
2023-04-07T19:56:47.007Z,42.7
2023-04-07T19:58:08.142Z,29.7
2023-04-07T19:59:29.227Z,12.6
2023-04-07T20:00:50.348Z,10.2
2023-04-07T20:02:11.476Z,10
2023-04-07T20:03:31.596Z,9.1
2023-04-07T20:04:51.727Z,10.4
2023-04-07T20:06:11.864Z,11.9
2023-04-07T20:07:31.979Z,10.2
2023-04-07T20:08:52.128Z,14.3
2023-04-07T20:10:12.250Z,19.9
2023-04-07T20:12:54.486Z,14.6
2023-04-07T20:14:15.587Z,17.3
2023-04-07T20:15:36.000Z,36.8
2023-04-07T20:16:57.807Z,26.8
2023-04-07T20:18:18.911Z,14.5
2023-04-07T20:19:40.038Z,9.7
2023-04-07T20:21:01.000Z,11
2023-04-07T20:22:22.259Z,11.7
2023-04-07T20:23:43.352Z,11.1
2023-04-07T20:25:04.436Z,12
2023-04-07T20:26:25.577Z,10
2023-04-07T20:27:45.691Z,10.8
2023-04-07T20:29:06.000Z,13.5
2023-04-07T20:30:27.917Z,15.9
2023-04-07T20:31:49.000Z,12.9
2023-04-07T20:33:10.138Z,11.9
2023-04-07T20:34:31.244Z,11.5
2023-04-07T20:35:52.364Z,12.7
2023-04-07T20:37:13.441Z,10.7
2023-04-07T20:38:33.597Z,12.1
2023-04-07T20:39:53.731Z,11
2023-04-07T20:41:13.858Z,13.6
2023-04-07T20:42:33.000Z,12.3
2023-04-07T20:43:55.103Z,13.7
2023-04-07T20:45:16.000Z,13.1
2023-04-07T20:46:37.336Z,11.7
2023-04-07T20:47:58.000Z,11.4
2023-04-07T20:49:19.555Z,13
2023-04-07T20:50:40.624Z,12.2
2023-04-07T20:52:01.000Z,12.6
2023-04-07T20:53:22.000Z,12.8
2023-04-07T20:54:43.968Z,14
2023-04-07T20:56:05.000Z,12
2023-04-07T20:57:26.165Z,15.1
2023-04-07T20:58:47.313Z,13.2
2023-04-07T21:00:07.436Z,14.4
2023-04-07T21:01:28.000Z,13.2
2023-04-07T21:02:49.643Z,15.6
2023-04-07T21:04:10.764Z,13
2023-04-07T21:05:31.861Z,14.1
2023-04-07T21:06:52.951Z,14.6
2023-04-07T21:08:14.050Z,16
2023-04-07T21:09:34.000Z,14.4
2023-04-07T21:10:54.332Z,15.9
2023-04-07T21:12:14.000Z,14.5
2023-04-07T21:13:34.605Z,12.9
2023-04-07T21:14:55.000Z,20
2023-04-07T21:16:16.816Z,14.7
2023-04-07T21:17:37.923Z,12.3
2023-04-07T21:18:59.036Z,15.8
2023-04-07T21:20:20.151Z,15.9
2023-04-07T21:21:41.229Z,15.1
2023-04-07T21:23:02.363Z,15.4
2023-04-07T21:24:23.477Z,13.9
2023-04-07T21:25:44.000Z,12.1
2023-04-07T21:27:05.674Z,12.3
2023-04-07T21:28:26.000Z,13.4
2023-04-07T21:29:47.913Z,13
2023-04-07T21:31:08.011Z,11
2023-04-07T21:32:29.000Z,13
2023-04-07T21:33:50.228Z,13.9
2023-04-07T21:35:11.371Z,11.3
2023-04-07T21:36:32.000Z,13.8
2023-04-07T21:37:53.584Z,12.7
2023-04-07T21:39:14.697Z,13.1
2023-04-07T21:40:35.000Z,14.7
2023-04-07T21:41:56.000Z,15.7
2023-04-07T21:43:16.209Z,14.1
2023-04-07T21:44:36.325Z,14.7
2023-04-07T21:45:57.413Z,11.7
2023-04-07T21:47:18.527Z,13.8
2023-04-07T21:48:39.000Z,13.5
2023-04-07T21:50:00.757Z,12.5
2023-04-07T21:51:21.876Z,14.4
2023-04-07T21:52:42.000Z,14.2
2023-04-07T21:54:04.080Z,15.3
2023-04-07T21:55:25.000Z,13
2023-04-07T21:56:46.300Z,13.6
2023-04-07T21:58:07.377Z,13.6
2023-04-07T21:59:28.529Z,11
2023-04-07T22:00:49.604Z,12.8
2023-04-07T22:02:09.747Z,14.8
2023-04-07T22:03:30.870Z,13.1
2023-04-07T22:04:51.000Z,11.4
2023-04-07T22:06:13.000Z,13.2
2023-04-07T22:07:34.182Z,12.7
2023-04-07T22:08:55.287Z,13
2023-04-07T22:10:16.374Z,12.1
2023-04-07T22:11:36.500Z,12.3
2023-04-07T22:12:56.000Z,12.8
2023-04-07T22:14:16.785Z,13.5
2023-04-07T22:15:36.922Z,11.8
2023-04-07T22:16:58.000Z,14.2
2023-04-07T22:18:19.122Z,13.5
2023-04-07T22:19:40.000Z,15.5
2023-04-07T22:21:01.340Z,14.3
2023-04-07T22:22:22.000Z,15.2
2023-04-07T22:37:43.432Z,9
2023-04-07T22:53:04.371Z,5.1
2023-04-07T23:08:25.356Z,5.8
2023-04-07T23:23:46.317Z,3.2
2023-04-07T23:39:07.000Z,2.1
2023-04-07T23:54:28.000Z,2.6
